Greenville (GRE)
Greenville, IL
Field Elevation: 541
Lat: 38°50.17N  Long: 89°22.70W
CTAF/Unicom Freq: 123.0500
   
     For Weather-by-Phone, call (618) 664-1939
Weather Advisories
2017-06-28   22:36 Z
Altimeter 29.90" Hg
Wind 180° @ 15 KT
Gusts 22 KT
Visibility 10 SM
Temperature 29° C (84° F)
Dewpoint 17° C (63° F)
Relative Humidity 48%
Density Altitude 2,300 feet
Condensation Altitude 6,700 feet
Heat Index: 29° C (84° F)
Wind and Runways
Indicated Runway = 18
Headwind = 15 kt
Crosswind = 0 kt
History
 
 
 
More Info
 
NOAA Forecast
 
Airport IQ 5010
(FLV) Sherman Airfield
(VLA) Vandalia
 
about Belfort Instrument
 
FAA Disclaimer: The data displayed is for advisory purposes only and is not to be used for flight planning or operations. For official data, please call (618) 664-1939 to hear the current automated AWOS voice message.
  METAR GRE 282236Z AUTO 18015G22KT 10 SM 29/17 A2990